createdAt,value
2016-11-13T09:20:20.012Z,58
2016-11-13T09:20:39.724Z,59
2016-11-13T09:20:55.105Z,60
2016-11-13T09:21:07.726Z,60
2016-11-13T09:21:23.137Z,60
2016-11-13T09:21:35.573Z,59
2016-11-13T09:21:56.672Z,60
2016-11-13T09:22:12.025Z,60
2016-11-13T09:22:24.337Z,61
2016-11-13T09:22:42.691Z,61
2016-11-13T09:22:55.195Z,61
2016-11-13T09:23:10.550Z,60
2016-11-13T09:23:25.640Z,60
2016-11-13T09:23:38.204Z,60
2016-11-13T09:23:53.442Z,59
2016-11-13T09:24:11.668Z,59
2016-11-13T09:24:29.971Z,59
2016-11-13T09:24:51.192Z,60
2016-11-13T09:25:06.514Z,59
2016-11-13T09:25:19.047Z,59
2016-11-13T09:25:34.458Z,59
2016-11-13T09:25:49.989Z,59
2016-11-13T09:26:02.366Z,59
2016-11-13T09:26:20.435Z,59
2016-11-13T09:26:38.549Z,59
2016-11-13T09:26:56.961Z,59
2016-11-13T09:27:21.043Z,59
2016-11-13T09:27:36.356Z,59
2016-11-13T09:27:51.685Z,59
2016-11-13T09:28:04.081Z,59
2016-11-13T09:28:19.420Z,59
2016-11-13T09:28:34.845Z,59
2016-11-13T09:28:56.063Z,59
2016-11-13T09:29:14.217Z,59
2016-11-13T09:29:29.724Z,59
2016-11-13T09:29:50.807Z,59
2016-11-13T09:30:09.053Z,58
2016-11-13T09:30:27.436Z,59
2016-11-13T09:30:39.954Z,59
2016-11-13T09:30:52.554Z,59
2016-11-13T09:31:08.003Z,59
2016-11-13T09:31:26.398Z,59
2016-11-13T09:31:41.750Z,59
2016-11-13T09:31:57.286Z,59
2016-11-13T09:32:12.706Z,59
2016-11-13T09:32:28.144Z,59
2016-11-13T09:32:40.651Z,59
2016-11-13T09:32:53.071Z,60
2016-11-13T09:33:08.356Z,59
2016-11-13T09:33:26.634Z,59
2016-11-13T09:33:47.811Z,60
2016-11-13T09:34:06.021Z,60
2016-11-13T09:34:18.631Z,60
2016-11-13T09:34:31.126Z,60
2016-11-13T09:34:49.323Z,60
2016-11-13T09:35:10.400Z,61
2016-11-13T09:35:25.762Z,61
2016-11-13T09:35:41.252Z,61
2016-11-13T09:35:56.655Z,61
2016-11-13T09:36:09.246Z,61
2016-11-13T09:36:24.602Z,61
2016-11-13T09:36:40.019Z,61
2016-11-13T09:36:52.570Z,62
2016-11-13T09:37:07.882Z,62
2016-11-13T09:37:20.305Z,62
2016-11-13T09:37:35.867Z,61
2016-11-13T09:37:51.149Z,61
2016-11-13T09:38:09.379Z,61
2016-11-13T09:38:24.865Z,62
2016-11-13T09:38:42.973Z,62
2016-11-13T09:39:01.075Z,62
2016-11-13T09:39:13.688Z,62
2016-11-13T09:39:32.133Z,62
2016-11-13T09:39:47.557Z,62
2016-11-13T09:40:05.974Z,62
2016-11-13T09:40:24.196Z,62
2016-11-13T09:40:36.461Z,62
2016-11-13T09:40:51.882Z,63
2016-11-13T09:41:07.106Z,63
2016-11-13T09:41:19.733Z,63
2016-11-13T09:41:32.395Z,63
2016-11-13T09:41:44.710Z,63
2016-11-13T09:41:59.940Z,63
2016-11-13T09:42:15.524Z,63
2016-11-13T09:42:33.682Z,63
2016-11-13T09:42:49.076Z,63
2016-11-13T09:43:07.365Z,63
2016-11-13T09:43:22.571Z,63
2016-11-13T09:43:37.922Z,63
2016-11-13T09:43:50.593Z,64
2016-11-13T09:44:03.175Z,64
2016-11-13T09:44:21.413Z,64
2016-11-13T09:44:36.822Z,64
2016-11-13T09:44:57.764Z,64
2016-11-13T09:45:17.312Z,63
2016-11-13T09:45:35.668Z,63
2016-11-13T09:45:51.163Z,63
2016-11-13T09:46:03.498Z,63
2016-11-13T09:46:21.711Z,63
2016-11-13T09:46:34.050Z,63
2016-11-13T09:46:49.408Z,63
2016-11-13T09:47:07.750Z,63
2016-11-13T09:47:23.142Z,63
2016-11-13T09:47:41.521Z,63
2016-11-13T09:47:56.806Z,63
2016-11-13T09:48:12.086Z,63
2016-11-13T09:48:27.268Z,63
2016-11-13T09:48:45.528Z,63
2016-11-13T09:49:01.042Z,63
2016-11-13T09:49:13.409Z,63
2016-11-13T09:49:28.731Z,63
2016-11-13T09:49:47.059Z,63
2016-11-13T09:49:59.411Z,63
2016-11-13T09:50:20.687Z,62
2016-11-13T09:50:36.242Z,62
2016-11-13T09:50:51.463Z,62
2016-11-13T09:51:04.174Z,62
2016-11-13T09:51:19.410Z,62
2016-11-13T09:51:40.470Z,62
2016-11-13T09:51:58.856Z,62
2016-11-13T09:52:14.344Z,62
2016-11-13T09:52:26.725Z,62
2016-11-13T09:52:41.986Z,62
2016-11-13T09:52:54.556Z,62
2016-11-13T09:53:09.783Z,62
2016-11-13T09:53:22.388Z,62
2016-11-13T09:53:34.833Z,62
2016-11-13T09:53:50.121Z,62
2016-11-13T09:54:05.439Z,62
2016-11-13T09:54:17.971Z,62
2016-11-13T09:54:36.066Z,62
2016-11-13T09:54:48.612Z,62
2016-11-13T09:55:07.427Z,61
2016-11-13T09:55:19.941Z,61
2016-11-13T09:55:35.832Z,62
2016-11-13T09:55:51.348Z,62
2016-11-13T09:56:03.698Z,61
2016-11-13T09:57:11.210Z,63
2016-11-13T09:57:26.468Z,63
2016-11-13T09:57:41.880Z,62
2016-11-13T09:57:57.303Z,62
2016-11-13T09:58:12.868Z,63
2016-11-13T09:58:25.478Z,63
2016-11-13T09:58:40.916Z,62
2016-11-13T09:58:59.159Z,62
2016-11-13T09:59:14.446Z,62
2016-11-13T09:59:29.861Z,63
2016-11-13T09:59:48.096Z,63
2016-11-13T10:00:00.455Z,62
2016-11-13T10:00:13.071Z,62
2016-11-13T10:00:28.488Z,62
2016-11-13T10:00:46.622Z,62
2016-11-13T10:01:07.831Z,62
2016-11-13T10:01:23.381Z,62
2016-11-13T10:01:38.644Z,62
2016-11-13T10:01:54.032Z,62
2016-11-13T10:02:09.504Z,62
2016-11-13T10:02:21.853Z,62
2016-11-13T10:02:40.019Z,62
2016-11-13T10:03:01.055Z,62
2016-11-13T10:03:16.495Z,63
2016-11-13T10:03:34.899Z,63
2016-11-13T10:03:50.383Z,62
2016-11-13T10:04:05.838Z,62
2016-11-13T10:04:21.151Z,62
2016-11-13T10:04:36.520Z,62
2016-11-13T10:04:49.144Z,62
2016-11-13T10:05:10.276Z,62
2016-11-13T10:05:28.600Z,62
2016-11-13T10:05:49.936Z,62
2016-11-13T10:06:02.299Z,62
2016-11-13T10:06:17.657Z,62
2016-11-13T10:06:30.054Z,62
2016-11-13T10:06:45.541Z,63
2016-11-13T10:06:58.018Z,62
2016-11-13T10:07:10.637Z,62
2016-11-13T10:07:25.765Z,62
2016-11-13T10:07:38.199Z,62
2016-11-13T10:07:53.649Z,63
2016-11-13T10:08:06.268Z,62
2016-11-13T10:08:24.628Z,62
2016-11-13T10:08:37.233Z,62
2016-11-13T10:08:49.734Z,62
2016-11-13T10:09:07.856Z,61
2016-11-13T10:09:20.410Z,62
2016-11-13T10:09:35.838Z,62
2016-11-13T10:09:56.946Z,62
2016-11-13T10:10:15.181Z,62
2016-11-13T10:10:27.575Z,62
2016-11-13T10:10:39.961Z,62
2016-11-13T10:10:52.561Z,62
2016-11-13T10:11:05.183Z,62
2016-11-13T10:11:20.633Z,62
2016-11-13T10:11:35.921Z,62
2016-11-13T10:11:48.404Z,62
2016-11-13T10:12:06.614Z,61
2016-11-13T10:12:24.894Z,62
2016-11-13T10:12:40.281Z,62
2016-11-13T10:12:55.516Z,62
2016-11-13T10:13:10.848Z,62
2016-11-13T10:13:28.861Z,62
2016-11-13T10:13:41.312Z,62
2016-11-13T10:13:56.808Z,61
2016-11-13T10:14:15.210Z,61
2016-11-13T10:14:33.451Z,61
2016-11-13T10:14:58.170Z,60
2016-11-13T10:15:16.949Z,61
2016-11-13T10:15:32.522Z,62
2016-11-13T10:15:53.814Z,62
2016-11-13T10:16:06.370Z,62
2016-11-13T10:16:21.651Z,62
2016-11-13T10:16:36.992Z,62
2016-11-13T10:16:55.263Z,62
2016-11-13T10:17:13.540Z,62
2016-11-13T10:17:26.063Z,62
2016-11-13T10:17:41.465Z,62
2016-11-13T10:17:53.891Z,62
2016-11-13T10:18:09.256Z,62
2016-11-13T10:18:24.719Z,62
2016-11-13T10:18:39.910Z,62
2016-11-13T10:18:55.455Z,62
2016-11-13T10:19:08.016Z,62
2016-11-13T10:19:20.414Z,62
2016-11-13T10:19:32.993Z,62
2016-11-13T10:19:45.475Z,62
2016-11-13T10:20:03.643Z,62
2016-11-13T10:20:18.943Z,62
2016-11-13T10:20:31.435Z,62
2016-11-13T10:20:46.790Z,62
2016-11-13T10:21:02.150Z,62
2016-11-13T10:21:17.621Z,62
2016-11-13T10:21:33.016Z,62
2016-11-13T10:21:51.309Z,62
2016-11-13T10:22:06.740Z,62
2016-11-13T10:22:24.991Z,62
2016-11-13T10:22:43.472Z,62
2016-11-13T10:23:01.697Z,61
2016-11-13T10:23:19.921Z,62
2016-11-13T10:23:35.196Z,62
2016-11-13T10:23:50.658Z,62
2016-11-13T10:24:05.995Z,62
2016-11-13T10:24:21.213Z,62
2016-11-13T10:24:33.898Z,62
2016-11-13T10:24:52.219Z,62
2016-11-13T10:25:04.778Z,62
2016-11-13T10:25:17.341Z,62
2016-11-13T10:25:32.771Z,62
2016-11-13T10:25:50.975Z,62
2016-11-13T10:26:06.371Z,62
2016-11-13T10:26:18.946Z,61
2016-11-13T10:26:37.144Z,61
2016-11-13T10:26:52.621Z,61
2016-11-13T10:27:12.256Z,61
2016-11-13T10:27:31.187Z,62
2016-11-13T10:27:46.680Z,62
2016-11-13T10:28:03.437Z,62
2016-11-13T10:28:18.913Z,62
2016-11-13T10:28:31.490Z,61
2016-11-13T10:28:46.878Z,62
2016-11-13T10:29:05.088Z,61
2016-11-13T10:29:20.551Z,61
2016-11-13T10:29:38.727Z,60
2016-11-13T10:30:05.967Z,61
2016-11-13T10:30:21.237Z,61
2016-11-13T10:30:39.760Z,60
2016-11-13T10:30:52.478Z,60
2016-11-13T10:31:04.964Z,60
2016-11-13T10:31:25.178Z,60
2016-11-13T10:31:43.536Z,60
2016-11-13T10:31:59.096Z,60
2016-11-13T10:32:11.786Z,60
2016-11-13T10:32:27.579Z,60
2016-11-13T10:32:50.155Z,60
2016-11-13T10:33:05.515Z,60
2016-11-13T10:33:22.339Z,60
2016-11-13T10:33:38.560Z,60
2016-11-13T10:33:51.153Z,60
2016-11-13T10:34:07.817Z,60
2016-11-13T10:34:20.150Z,60
2016-11-13T10:34:39.070Z,60
2016-11-13T10:34:55.312Z,62
2016-11-13T10:35:14.154Z,62
2016-11-13T10:35:32.309Z,61
2016-11-13T10:35:44.977Z,61
2016-11-13T10:36:02.265Z,61
2016-11-13T10:36:21.777Z,61
2016-11-13T10:36:45.502Z,61
2016-11-13T10:37:06.746Z,60
2016-11-13T10:37:23.054Z,60
2016-11-13T10:37:42.193Z,60
2016-11-13T10:37:58.881Z,60
2016-11-13T10:38:12.960Z,60
2016-11-13T10:38:29.590Z,60
2016-11-13T10:38:45.243Z,60
2016-11-13T10:39:01.184Z,60
2016-11-13T10:39:19.618Z,59
2016-11-13T10:39:35.373Z,59
2016-11-13T10:39:50.880Z,59
2016-11-13T10:40:09.198Z,61
2016-11-13T10:40:24.628Z,61
2016-11-13T10:40:39.976Z,60
2016-11-13T10:40:58.248Z,59
2016-11-13T10:41:13.610Z,59
2016-11-13T10:41:26.135Z,59
2016-11-13T10:41:41.495Z,59
2016-11-13T10:41:56.957Z,59
2016-11-13T10:42:15.011Z,59
2016-11-13T10:42:30.423Z,59
2016-11-13T10:42:45.746Z,59
2016-11-13T10:42:58.211Z,59
2016-11-13T10:43:10.595Z,59
2016-11-13T10:43:26.045Z,59
2016-11-13T10:43:41.379Z,59
2016-11-13T10:44:04.048Z,59
2016-11-13T10:44:19.682Z,58
2016-11-13T10:44:37.900Z,58
2016-11-13T10:44:54.531Z,59
2016-11-13T10:45:16.582Z,59
2016-11-13T10:45:37.829Z,59
2016-11-13T10:45:53.119Z,59
2016-11-13T10:46:08.555Z,58
2016-11-13T10:46:27.288Z,59
2016-11-13T10:46:42.743Z,59
2016-11-13T10:47:03.983Z,59
2016-11-13T10:47:22.927Z,59
2016-11-13T10:47:38.343Z,59
2016-11-13T10:47:57.219Z,59
2016-11-13T10:48:12.730Z,59
2016-11-13T10:48:31.058Z,58
2016-11-13T10:48:46.629Z,58
2016-11-13T10:49:04.933Z,59
2016-11-13T10:49:26.191Z,59
2016-11-13T10:49:41.592Z,59
2016-11-13T10:49:54.361Z,59
2016-11-13T10:50:12.735Z,59
2016-11-13T10:50:25.314Z,59
2016-11-13T10:50:46.443Z,59
2016-11-13T10:51:04.562Z,59
2016-11-13T10:51:20.280Z,59
2016-11-13T10:51:35.935Z,59
2016-11-13T10:51:54.269Z,59
2016-11-13T10:52:12.783Z,58
2016-11-13T10:52:31.110Z,58
2016-11-13T10:52:49.424Z,58
2016-11-13T10:53:01.968Z,58
2016-11-13T10:53:20.513Z,58
2016-11-13T10:53:36.076Z,58
2016-11-13T10:53:54.494Z,58
2016-11-13T10:54:09.916Z,59
2016-11-13T10:54:22.433Z,59
2016-11-13T10:54:40.898Z,59
2016-11-13T10:54:53.605Z,59
2016-11-13T10:55:06.022Z,59
2016-11-13T10:55:24.482Z,59
2016-11-13T10:55:42.766Z,58
2016-11-13T10:55:55.439Z,58
2016-11-13T10:56:07.969Z,58
2016-11-13T10:56:23.427Z,58
2016-11-13T10:56:41.704Z,58
2016-11-13T10:56:57.164Z,59
2016-11-13T10:57:12.654Z,59
2016-11-13T10:57:28.185Z,59
2016-11-13T10:57:43.671Z,59
2016-11-13T10:57:59.061Z,59
2016-11-13T10:58:14.496Z,59
2016-11-13T10:58:30.058Z,59
2016-11-13T10:58:42.668Z,59
2016-11-13T10:59:01.175Z,59
2016-11-13T10:59:19.521Z,58
2016-11-13T10:59:34.932Z,58
2016-11-13T10:59:50.435Z,58
2016-11-13T11:00:08.893Z,59
2016-11-13T11:00:27.192Z,59
2016-11-13T11:00:42.696Z,59
2016-11-13T11:00:55.342Z,59
2016-11-13T11:01:10.750Z,58
2016-11-13T11:01:26.390Z,58
2016-11-13T11:01:44.899Z,58
2016-11-13T11:02:03.180Z,58
2016-11-13T11:02:15.737Z,59
2016-11-13T11:02:36.986Z,58
2016-11-13T11:02:52.454Z,58
2016-11-13T11:03:13.922Z,58
2016-11-13T11:03:35.225Z,58
2016-11-13T11:03:47.697Z,58
2016-11-13T11:04:03.157Z,58
2016-11-13T11:04:21.460Z,59
2016-11-13T11:04:39.789Z,58
2016-11-13T11:04:58.150Z,58
2016-11-13T11:05:13.707Z,58
2016-11-13T11:05:29.106Z,58
2016-11-13T11:05:44.623Z,58
2016-11-13T11:06:00.074Z,59
2016-11-13T11:06:21.546Z,59
2016-11-13T11:06:37.152Z,59
2016-11-13T11:06:52.763Z,59
2016-11-13T11:07:05.274Z,59
2016-11-13T11:07:17.669Z,59
2016-11-13T11:07:35.997Z,59
2016-11-13T11:07:51.418Z,58
2016-11-13T11:08:03.996Z,59
2016-11-13T11:08:19.333Z,58
2016-11-13T11:08:37.628Z,58
2016-11-13T11:08:56.114Z,58
2016-11-13T11:09:14.576Z,59
2016-11-13T11:09:29.916Z,58
2016-11-13T11:09:45.384Z,59
2016-11-13T11:09:58.129Z,58
2016-11-13T11:10:13.490Z,58
2016-11-13T11:10:34.679Z,58
2016-11-13T11:10:50.290Z,58
2016-11-13T11:11:05.705Z,58
2016-11-13T11:11:18.197Z,58
2016-11-13T11:11:30.840Z,58
2016-11-13T11:11:49.255Z,58
2016-11-13T11:12:02.021Z,58
2016-11-13T11:12:20.324Z,58
2016-11-13T11:12:32.982Z,58
2016-11-13T11:12:51.385Z,58
2016-11-13T11:13:09.696Z,58
2016-11-13T11:13:22.181Z,58
2016-11-13T11:13:37.655Z,58
2016-11-13T11:13:53.170Z,58
2016-11-13T11:14:05.824Z,58
2016-11-13T11:14:21.201Z,58
2016-11-13T11:14:39.795Z,58
2016-11-13T11:14:55.370Z,58
2016-11-13T11:15:10.890Z,58
2016-11-13T11:15:32.322Z,58
2016-11-13T11:15:50.850Z,58
2016-11-13T11:16:09.221Z,58
2016-11-13T11:16:24.851Z,58
2016-11-13T11:16:40.112Z,58
2016-11-13T11:16:55.605Z,58
2016-11-13T11:17:11.113Z,58
2016-11-13T11:17:30.721Z,58
2016-11-13T11:17:46.080Z,58
2016-11-13T11:17:58.752Z,58
2016-11-13T11:18:17.041Z,58
2016-11-13T11:18:32.512Z,58
2016-11-13T11:18:48.135Z,58
2016-11-13T11:19:06.564Z,58
2016-11-13T11:19:22.035Z,58
2016-11-13T11:19:37.537Z,58
2016-11-13T11:19:50.267Z,58
2016-11-13T11:20:02.750Z,58
2016-11-13T11:20:15.509Z,58
2016-11-13T11:20:33.961Z,58
2016-11-13T11:20:49.354Z,58
2016-11-13T11:21:07.798Z,58
2016-11-13T11:21:23.175Z,58
2016-11-13T11:21:35.670Z,58
2016-11-13T11:21:57.042Z,58
2016-11-13T11:22:15.480Z,58
2016-11-13T11:22:33.633Z,58
2016-11-13T11:22:49.125Z,58
2016-11-13T11:23:04.679Z,58
2016-11-13T11:23:20.182Z,58
2016-11-13T11:23:32.948Z,58
2016-11-13T11:23:48.592Z,58
2016-11-13T11:24:01.207Z,58
2016-11-13T11:24:16.427Z,58
2016-11-13T11:24:32.079Z,58
2016-11-13T11:24:50.324Z,58
2016-11-13T11:25:08.719Z,59
2016-11-13T11:25:24.124Z,59
2016-11-13T11:25:39.669Z,59
2016-11-13T11:25:55.218Z,58
2016-11-13T11:26:10.695Z,58
2016-11-13T11:26:23.380Z,59
2016-11-13T11:26:35.961Z,59
2016-11-13T11:26:48.438Z,58
2016-11-13T11:27:06.927Z,58
2016-11-13T11:27:22.501Z,58
2016-11-13T11:27:40.585Z,58
2016-11-13T11:27:56.124Z,58
2016-11-13T11:28:11.530Z,58
2016-11-13T11:28:32.736Z,58
2016-11-13T11:28:48.167Z,58
2016-11-13T11:29:03.830Z,58
2016-11-13T11:29:22.114Z,58
2016-11-13T11:29:43.367Z,58
2016-11-13T11:30:01.815Z,58
2016-11-13T11:30:17.205Z,58
2016-11-13T11:30:32.646Z,58
2016-11-13T11:30:48.103Z,58
2016-11-13T11:31:06.363Z,58
2016-11-13T11:31:24.675Z,59
2016-11-13T11:31:37.191Z,59
2016-11-13T11:31:49.930Z,59
2016-11-13T11:32:08.246Z,59
2016-11-13T11:32:20.851Z,59
2016-11-13T11:32:33.247Z,59
2016-11-13T11:32:48.565Z,59
2016-11-13T11:33:07.058Z,58
2016-11-13T11:33:25.098Z,59
2016-11-13T11:33:40.639Z,59
2016-11-13T11:33:58.927Z,59
2016-11-13T11:34:11.496Z,59
2016-11-13T11:34:26.764Z,59
2016-11-13T11:34:45.026Z,59
2016-11-13T11:35:00.380Z,59
2016-11-13T11:35:13.047Z,58
2016-11-13T11:35:34.443Z,58
2016-11-13T11:35:52.784Z,58
2016-11-13T11:36:11.016Z,58
2016-11-13T11:36:26.593Z,58
2016-11-13T11:36:41.970Z,58
2016-11-13T11:37:00.454Z,58
2016-11-13T11:37:13.110Z,58
2016-11-13T11:37:25.573Z,58
2016-11-13T11:37:37.918Z,58
2016-11-13T11:37:56.317Z,58
2016-11-13T11:38:14.540Z,58
2016-11-13T11:38:27.253Z,58
2016-11-13T11:38:45.514Z,58
2016-11-13T11:39:00.932Z,58
2016-11-13T11:39:16.367Z,58
2016-11-13T11:39:34.829Z,58
2016-11-13T11:39:55.920Z,58
2016-11-13T11:40:11.411Z,58
2016-11-13T11:40:30.378Z,58
2016-11-13T11:40:48.614Z,60
2016-11-13T11:41:09.984Z,61
2016-11-13T11:41:28.546Z,61
2016-11-13T11:41:41.267Z,60
2016-11-13T11:41:56.630Z,59
2016-11-13T11:42:15.107Z,59
2016-11-13T11:42:27.694Z,59
2016-11-13T11:42:42.968Z,59
2016-11-13T11:43:01.330Z,59
2016-11-13T11:43:16.936Z,58
2016-11-13T11:43:32.409Z,58
2016-11-13T11:43:50.856Z,57
2016-11-13T11:44:06.135Z,57
2016-11-13T11:44:21.560Z,57
2016-11-13T11:44:42.748Z,57
2016-11-13T11:45:01.163Z,58
2016-11-13T11:45:23.320Z,57
2016-11-13T11:45:36.019Z,58
2016-11-13T11:45:54.295Z,57
2016-11-13T11:46:12.591Z,57
2016-11-13T11:46:28.188Z,57
2016-11-13T11:46:46.515Z,57
2016-11-13T11:47:04.661Z,57
2016-11-13T11:47:25.854Z,57
2016-11-13T11:47:41.669Z,57
2016-11-13T11:47:56.955Z,58
2016-11-13T11:48:20.490Z,58
2016-11-13T11:48:44.763Z,58
2016-11-13T11:49:03.071Z,59
2016-11-13T11:49:21.555Z,58
2016-11-13T11:49:42.946Z,58
2016-11-13T11:50:07.182Z,58
2016-11-13T11:50:28.457Z,59
2016-11-13T11:50:41.056Z,59
2016-11-13T11:50:56.951Z,59
2016-11-13T11:51:20.165Z,58
2016-11-13T11:51:39.538Z,58
2016-11-13T11:51:54.921Z,59
2016-11-13T11:52:12.598Z,58
2016-11-13T11:52:34.306Z,58
2016-11-13T11:52:55.661Z,57
2016-11-13T11:53:11.623Z,57
2016-11-13T11:53:33.588Z,58
2016-11-13T11:53:51.727Z,58
2016-11-13T11:54:10.235Z,57
2016-11-13T11:54:31.537Z,57
2016-11-13T11:54:46.965Z,57
2016-11-13T11:55:05.446Z,57
2016-11-13T11:55:20.998Z,57
2016-11-13T11:55:39.390Z,57
2016-11-13T11:55:56.671Z,57
2016-11-13T11:56:12.445Z,57
2016-11-13T11:56:27.874Z,57
2016-11-13T11:56:46.304Z,57
2016-11-13T11:56:58.796Z,57
2016-11-13T11:57:17.199Z,57
2016-11-13T11:57:36.212Z,57
2016-11-13T11:57:51.645Z,57
2016-11-13T11:58:10.018Z,57
2016-11-13T11:58:28.501Z,57
2016-11-13T11:58:46.677Z,57
2016-11-13T11:59:08.061Z,57
2016-11-13T11:59:23.348Z,57
2016-11-13T11:59:41.793Z,57
2016-11-13T12:00:00.216Z,57
2016-11-13T12:00:18.712Z,57
2016-11-13T12:00:36.909Z,59
2016-11-13T12:00:57.868Z,59
2016-11-13T12:01:16.285Z,59
2016-11-13T12:01:31.640Z,58
2016-11-13T12:01:50.174Z,58
2016-11-13T12:02:14.487Z,58
2016-11-13T12:02:33.353Z,58
2016-11-13T12:02:51.876Z,58
2016-11-13T12:03:10.274Z,58
2016-11-13T12:03:25.482Z,58
2016-11-13T12:03:40.970Z,57
2016-11-13T12:04:02.308Z,57
2016-11-13T12:04:20.682Z,58
2016-11-13T12:04:42.750Z,58
2016-11-13T12:04:58.459Z,58
2016-11-13T12:05:19.825Z,58
2016-11-13T12:05:35.364Z,58
2016-11-13T12:05:53.824Z,58
2016-11-13T12:06:06.418Z,58
2016-11-13T12:06:24.667Z,59
2016-11-13T12:06:37.263Z,58
2016-11-13T12:06:49.774Z,58
2016-11-13T12:07:11.053Z,58
2016-11-13T12:07:29.287Z,58
2016-11-13T12:07:44.652Z,58
2016-11-13T12:08:00.060Z,59
2016-11-13T12:08:18.498Z,60
2016-11-13T12:08:39.696Z,59
2016-11-13T12:08:56.528Z,59
2016-11-13T12:09:10.460Z,59
2016-11-13T12:09:25.772Z,58
2016-11-13T12:09:44.084Z,59
2016-11-13T12:10:00.782Z,59
2016-11-13T12:10:16.187Z,59
2016-11-13T12:10:37.568Z,59
2016-11-13T12:11:03.399Z,58
2016-11-13T12:11:24.570Z,59
2016-11-13T12:11:47.503Z,60
2016-11-13T12:12:02.856Z,60
2016-11-13T12:12:15.487Z,59
2016-11-13T12:12:30.755Z,59
2016-11-13T12:12:49.102Z,58
2016-11-13T12:13:04.478Z,58
2016-11-13T12:13:20.859Z,59
2016-11-13T12:13:46.445Z,59
2016-11-13T12:14:02.005Z,59
2016-11-13T12:14:22.144Z,60
2016-11-13T12:14:40.033Z,59
2016-11-13T12:15:04.589Z,59
2016-11-13T12:15:19.619Z,59
2016-11-13T12:15:32.195Z,59
2016-11-13T12:15:50.568Z,58
2016-11-13T12:16:05.956Z,58
2016-11-13T12:16:21.303Z,58
2016-11-13T12:16:45.207Z,58
2016-11-13T12:17:04.954Z,58
2016-11-13T12:17:24.150Z,58
2016-11-13T12:17:42.559Z,58
2016-11-13T12:17:55.005Z,58
2016-11-13T12:18:13.237Z,58
2016-11-13T12:18:25.726Z,57
2016-11-13T12:18:41.115Z,58
2016-11-13T12:18:56.491Z,58
2016-11-13T12:19:14.797Z,58
2016-11-13T12:19:30.073Z,58
2016-11-13T12:19:48.335Z,58
2016-11-13T12:20:09.474Z,57
2016-11-13T12:20:27.804Z,57
2016-11-13T12:20:43.177Z,57
2016-11-13T12:20:55.731Z,57
2016-11-13T12:21:13.846Z,57
2016-11-13T12:21:32.197Z,57
2016-11-13T12:21:47.608Z,57
2016-11-13T12:22:03.018Z,57
2016-11-13T12:22:21.342Z,57
2016-11-13T12:22:36.849Z,57
2016-11-13T12:22:55.156Z,57
2016-11-13T12:23:13.342Z,57
2016-11-13T12:23:28.788Z,57
2016-11-13T12:23:47.065Z,57
2016-11-13T12:23:59.579Z,57
2016-11-13T12:24:17.906Z,57
2016-11-13T12:24:39.009Z,58
2016-11-13T12:25:00.287Z,58
2016-11-13T12:25:15.574Z,58
2016-11-13T12:25:34.031Z,58
2016-11-13T12:25:46.412Z,58
2016-11-13T12:26:01.684Z,58
2016-11-13T12:26:17.171Z,58
2016-11-13T12:26:37.433Z,58
2016-11-13T12:26:49.918Z,58
2016-11-13T12:27:05.579Z,59
2016-11-13T12:27:23.722Z,59
2016-11-13T12:27:47.758Z,59
2016-11-13T12:28:06.529Z,59
2016-11-13T12:28:21.941Z,59
2016-11-13T12:28:40.528Z,59
2016-11-13T12:28:58.907Z,60
2016-11-13T12:29:14.330Z,59
2016-11-13T12:29:29.664Z,60
2016-11-13T12:29:45.228Z,59
2016-11-13T12:30:01.007Z,59
2016-11-13T12:30:16.580Z,59
2016-11-13T12:30:37.881Z,58
2016-11-13T12:30:51.052Z,58
2016-11-13T12:31:06.360Z,59
2016-11-13T12:31:22.017Z,59
2016-11-13T12:31:34.691Z,59
2016-11-13T12:31:52.963Z,60
2016-11-13T12:32:11.737Z,59
2016-11-13T12:32:27.267Z,59
2016-11-13T12:32:43.918Z,59
2016-11-13T12:32:59.929Z,59
2016-11-13T12:33:16.067Z,60
2016-11-13T12:33:38.850Z,59
2016-11-13T12:33:58.396Z,59
2016-11-13T12:34:19.114Z,59
2016-11-13T12:34:37.298Z,58
2016-11-13T12:34:52.710Z,58
2016-11-13T12:35:11.072Z,58
2016-11-13T12:35:32.320Z,58
2016-11-13T12:35:52.269Z,58
2016-11-13T12:36:04.971Z,58
2016-11-13T12:36:17.800Z,59
2016-11-13T12:36:39.803Z,58
2016-11-13T12:36:52.420Z,58
2016-11-13T12:37:10.758Z,58
2016-11-13T12:37:28.930Z,59
2016-11-13T12:37:44.419Z,58
2016-11-13T12:38:02.627Z,58
2016-11-13T12:38:21.032Z,58
2016-11-13T12:38:36.282Z,58
2016-11-13T12:38:48.682Z,58
2016-11-13T12:39:07.059Z,57
2016-11-13T12:39:19.617Z,57
2016-11-13T12:39:35.261Z,57
2016-11-13T12:39:50.617Z,57
2016-11-13T12:40:06.183Z,57
2016-11-13T12:40:21.354Z,57
2016-11-13T12:40:39.680Z,57
2016-11-13T12:40:55.195Z,57
2016-11-13T12:41:13.623Z,57
2016-11-13T12:41:34.780Z,57
2016-11-13T12:41:56.156Z,57
2016-11-13T12:42:14.428Z,57
2016-11-13T12:42:29.684Z,57
2016-11-13T12:42:47.969Z,57
2016-11-13T12:43:03.495Z,57
2016-11-13T12:43:18.913Z,57
2016-11-13T12:43:34.232Z,56
2016-11-13T12:43:46.600Z,56
2016-11-13T12:44:04.846Z,56
2016-11-13T12:44:17.328Z,56
2016-11-13T12:44:32.901Z,56
2016-11-13T12:44:45.306Z,56
2016-11-13T12:45:01.460Z,56
2016-11-13T12:45:17.428Z,56
2016-11-13T12:45:32.981Z,56
2016-11-13T12:45:45.443Z,56
2016-11-13T12:45:58.035Z,56
2016-11-13T12:46:13.284Z,56
2016-11-13T12:46:25.941Z,56
2016-11-13T12:46:41.567Z,56
2016-11-13T12:46:56.973Z,56
2016-11-13T12:47:09.626Z,56
2016-11-13T12:47:25.989Z,56
2016-11-13T12:47:44.315Z,56
2016-11-13T12:47:59.785Z,56
2016-11-13T12:48:21.017Z,56
2016-11-13T12:48:39.288Z,56
2016-11-13T12:48:54.694Z,56
2016-11-13T12:49:15.977Z,56
2016-11-13T12:49:28.995Z,56
2016-11-13T12:49:47.355Z,56
2016-11-13T12:50:03.412Z,56
2016-11-13T12:50:21.818Z,56
2016-11-13T12:50:40.270Z,57
2016-11-13T12:50:52.800Z,58
2016-11-13T12:51:08.230Z,58
2016-11-13T12:51:26.470Z,58
2016-11-13T12:51:41.397Z,58
2016-11-13T12:51:57.794Z,58
2016-11-13T12:52:15.825Z,58
2016-11-13T12:52:34.069Z,58
2016-11-13T12:52:50.263Z,58
2016-11-13T12:53:02.993Z,58
2016-11-13T12:53:21.227Z,58
2016-11-13T12:53:36.832Z,58
2016-11-13T12:53:54.894Z,57
2016-11-13T12:54:08.249Z,57
2016-11-13T12:54:31.245Z,58
2016-11-13T12:54:47.246Z,58
2016-11-13T12:55:02.571Z,58
2016-11-13T12:55:20.670Z,58
2016-11-13T12:55:39.029Z,58
2016-11-13T12:55:54.323Z,58
2016-11-13T12:56:06.930Z,58
2016-11-13T12:56:28.214Z,59
2016-11-13T12:56:43.671Z,59
2016-11-13T12:57:01.866Z,59
2016-11-13T12:57:14.376Z,59
2016-11-13T12:57:35.536Z,59
2016-11-13T12:57:48.158Z,58
2016-11-13T12:58:06.572Z,58
2016-11-13T12:58:19.271Z,58
2016-11-13T13:24:15.482Z,62
2016-11-13T13:24:33.907Z,62
2016-11-13T13:24:52.750Z,62
2016-11-13T13:25:12.045Z,62
2016-11-13T13:25:28.494Z,63
2016-11-13T13:25:43.989Z,62
2016-11-13T13:26:07.999Z,62
2016-11-13T13:26:20.607Z,62
2016-11-13T13:26:38.750Z,63
2016-11-13T13:26:54.151Z,63
2016-11-13T13:27:06.598Z,62
2016-11-13T13:27:21.929Z,62
2016-11-13T13:27:37.512Z,62
2016-11-13T13:27:55.776Z,62
2016-11-13T13:28:16.887Z,62
2016-11-13T13:28:32.359Z,62
2016-11-13T13:28:50.788Z,62
2016-11-13T13:29:03.189Z,61
2016-11-13T13:29:18.475Z,62
2016-11-13T13:29:36.981Z,62
2016-11-13T13:29:52.875Z,62
2016-11-13T13:30:11.051Z,62
2016-11-13T13:30:29.891Z,61
2016-11-13T13:30:48.057Z,62
2016-11-13T13:31:06.399Z,62
2016-11-13T13:31:22.077Z,61
2016-11-13T13:31:34.590Z,61
2016-11-13T13:31:50.027Z,61
2016-11-13T13:32:11.168Z,61
2016-11-13T13:32:29.388Z,62
2016-11-13T13:32:51.608Z,62
2016-11-13T13:33:10.911Z,62
2016-11-13T13:33:29.819Z,62
2016-11-13T13:33:49.002Z,61
2016-11-13T13:34:04.795Z,62
2016-11-13T13:34:23.153Z,61
2016-11-13T13:34:41.467Z,61
2016-11-13T13:34:59.778Z,61
2016-11-13T13:35:15.206Z,61
2016-11-13T13:35:27.553Z,61
2016-11-13T13:35:42.997Z,60
2016-11-13T13:36:03.385Z,60
2016-11-13T13:36:22.453Z,61
2016-11-13T13:36:37.979Z,60
2016-11-13T13:36:54.762Z,61
2016-11-13T13:37:10.108Z,61
2016-11-13T13:37:25.523Z,60
2016-11-13T13:37:41.010Z,60
2016-11-13T13:37:53.610Z,60
2016-11-13T13:38:09.086Z,60
2016-11-13T13:38:27.261Z,60
2016-11-13T13:38:45.463Z,60
2016-11-13T13:38:57.992Z,60
2016-11-13T13:39:10.519Z,60
2016-11-13T13:39:34.556Z,60
2016-11-13T13:39:58.788Z,60
2016-11-13T13:40:17.052Z,60
2016-11-13T13:40:29.379Z,60
2016-11-13T13:40:44.924Z,60
2016-11-13T13:41:03.357Z,60
2016-11-13T13:41:15.736Z,60
2016-11-13T13:41:34.199Z,60
2016-11-13T13:41:46.657Z,60